Time;durP1;ratioP1;P1;durP2;ratioP2;P2;SDS_P1;SDS_P2;PMS_P1;PMS_P2;Temp;Humidity;BMP_temperature;BMP_pressure;BME280_temperature;BME280_humidity;BME280_pressure;Samples;Min_cycle;Max_cycle;Signal;HPM_P1;HPM_P2
2022/07/24 00:02:11;;;;;;;14.20;12.63;;;;;;;16.94;71.85;100555.73;2048864;86;28696;-64
2022/07/24 00:05:13;;;;;;;15.15;13.75;;;;;;;16.90;71.94;100556.45;2049128;86;31905;-64
2022/07/24 00:08:14;;;;;;;15.88;14.18;;;;;;;16.85;72.07;100557.25;2049093;86;33134;-65
2022/07/24 00:11:16;;;;;;;16.42;13.75;;;;;;;16.81;72.12;100566.56;2049186;86;29635;-64
2022/07/24 00:14:17;;;;;;;18.90;15.58;;;;;;;16.76;72.25;100562.84;2085507;85;27702;-65
2022/07/24 00:17:19;;;;;;;17.42;14.18;;;;;;;16.73;72.33;100560.34;2049229;86;29453;-64
2022/07/24 00:20:21;;;;;;;15.70;14.18;;;;;;;16.69;72.50;100561.56;2049253;85;31814;-64
2022/07/24 00:23:24;;;;;;;20.72;15.30;;;;;;;16.65;72.70;100564.95;2048895;86;33980;-64
2022/07/24 00:26:26;;;;;;;17.32;14.50;;;;;;;16.62;72.68;100563.84;2054652;85;30460;-69
2022/07/24 00:29:28;;;;;;;18.92;14.60;;;;;;;16.60;72.88;100567.61;2098248;84;27892;-66
2022/07/24 00:32:30;;;;;;;18.77;15.10;;;;;;;16.51;73.17;100551.55;2102884;84;29461;-65
2022/07/24 00:35:32;;;;;;;16.67;14.98;;;;;;;16.60;73.29;100562.20;2102743;84;30991;-65
2022/07/24 00:38:34;;;;;;;16.55;14.35;;;;;;;16.61;73.39;100566.17;2102522;84;33859;-65
2022/07/24 00:41:35;;;;;;;15.95;13.65;;;;;;;16.62;73.49;100560.26;2102744;84;29024;-65
2022/07/24 00:44:37;;;;;;;17.80;15.18;;;;;;;16.63;73.52;100566.05;2103153;84;28193;-66
2022/07/24 00:47:38;;;;;;;16.57;14.28;;;;;;;16.63;73.69;100561.48;2095624;84;28640;-65
2022/07/24 00:50:40;;;;;;;16.73;15.03;;;;;;;16.65;73.83;100564.11;2049031;86;31723;-65
2022/07/24 00:53:41;;;;;;;16.90;14.10;;;;;;;16.67;74.00;100564.86;2049129;86;32940;-65
2022/07/24 00:56:46;;;;;;;15.65;13.53;;;;;;;16.68;74.23;100563.39;2049151;86;30087;-66
2022/07/24 00:59:48;;;;;;;15.00;13.48;;;;;;;16.70;74.28;100561.95;2048001;85;28300;-66
2022/07/24 01:02:50;;;;;;;14.80;13.25;;;;;;;16.72;74.33;100561.32;2046110;87;29484;-66
2022/07/24 01:05:51;;;;;;;18.82;13.75;;;;;;;16.73;74.45;100561.70;2045946;87;31035;-65
2022/07/24 01:08:54;;;;;;;14.73;12.25;;;;;;;16.73;74.38;100560.34;2046209;87;32962;-66
2022/07/24 01:11:56;;;;;;;17.15;12.28;;;;;;;16.70;74.41;100561.45;2046161;87;29653;-62
2022/07/24 01:14:58;;;;;;;17.48;13.80;;;;;;;16.70;74.39;100556.53;2046260;87;27798;-63
2022/07/24 01:18:01;;;;;;;14.87;13.20;;;;;;;16.67;74.40;100556.75;2046125;87;29909;-63
2022/07/24 01:21:06;;;;;;;25.27;15.55;;;;;;;16.63;74.33;100553.88;2046255;87;31909;-63
2022/07/24 01:24:08;;;;;;;16.83;14.90;;;;;;;16.59;74.35;100558.64;2046611;87;33582;-63
2022/07/24 01:27:10;;;;;;;15.10;13.55;;;;;;;16.54;74.37;100556.28;2046094;85;30629;-63
2022/07/24 01:30:13;;;;;;;17.32;15.53;;;;;;;16.50;74.41;100553.88;2023717;87;27755;-63
2022/07/24 01:33:16;;;;;;;20.43;15.70;;;;;;;16.46;74.49;100553.73;2046218;86;29243;-63
2022/07/24 01:36:18;;;;;;;16.48;14.87;;;;;;;16.40;74.47;100551.83;2046413;87;31016;-63
2022/07/24 01:39:21;;;;;;;16.48;14.60;;;;;;;16.35;74.46;100549.92;2045929;87;33016;-63
2022/07/24 01:42:25;;;;;;;18.85;16.37;;;;;;;16.32;74.56;100554.69;2046359;87;29676;-63
2022/07/24 01:45:26;;;;;;;15.13;13.53;;;;;;;16.27;74.67;100558.19;2046306;86;27742;-63
2022/07/24 01:48:27;;;;;;;21.05;16.35;;;;;;;16.22;74.63;100558.52;2046366;87;28687;-63
2022/07/24 01:51:29;;;;;;;23.85;14.93;;;;;;;16.18;74.68;100555.64;2046400;87;31406;-63
2022/07/24 01:54:30;;;;;;;19.23;16.93;;;;;;;16.15;74.81;100558.55;2046360;87;32716;-63
2022/07/24 01:57:32;;;;;;;19.48;16.90;;;;;;;16.09;74.82;100551.73;2046198;87;29434;-63
2022/07/24 02:00:35;;;;;;;22.22;17.73;;;;;;;16.06;74.94;100555.53;2047703;85;27844;-63
2022/07/24 02:03:38;;;;;;;22.15;17.52;;;;;;;16.02;75.08;100558.05;2049362;86;28714;-62
2022/07/24 02:06:41;;;;;;;21.80;17.25;;;;;;;15.99;75.06;100556.91;2049483;86;31850;-63
2022/07/24 02:09:44;;;;;;;21.48;17.85;;;;;;;15.95;75.14;100554.91;2049148;86;33680;-63
2022/07/24 02:12:46;;;;;;;19.05;17.07;;;;;;;15.91;75.14;100556.08;2049405;86;30003;-63
2022/07/24 02:15:48;;;;;;;18.60;16.60;;;;;;;15.87;75.12;100558.63;2049334;86;27177;-62
2022/07/24 02:18:53;;;;;;;17.80;15.90;;;;;;;15.83;75.29;100558.42;2049304;86;28730;-63
2022/07/24 02:21:55;;;;;;;20.12;18.02;;;;;;;15.79;75.24;100554.19;2049275;86;31074;-63
2022/07/24 02:24:57;;;;;;;20.88;16.27;;;;;;;15.76;75.36;100555.27;2049354;86;33415;-63
2022/07/24 02:28:00;;;;;;;20.52;18.32;;;;;;;15.73;75.32;100565.39;2049264;86;30456;-62
2022/07/24 02:31:01;;;;;;;19.07;17.00;;;;;;;15.69;75.43;100551.23;2049375;86;27610;-62
2022/07/24 02:34:04;;;;;;;23.05;18.07;;;;;;;15.67;75.49;100564.47;2085342;84;29328;-63
2022/07/24 02:37:06;;;;;;;18.62;16.67;;;;;;;15.62;75.47;100558.03;2049500;86;31419;-63
2022/07/24 02:40:10;;;;;;;21.33;17.67;;;;;;;15.59;75.53;100560.44;2049241;86;33403;-63
2022/07/24 02:43:13;;;;;;;18.70;16.23;;;;;;;15.56;75.61;100562.48;2049590;85;30656;-63
2022/07/24 02:46:15;;;;;;;18.95;17.02;;;;;;;15.53;75.61;100570.31;2049238;86;27653;-63
2022/07/24 02:49:17;;;;;;;22.02;16.90;;;;;;;15.50;75.71;100565.96;2049148;86;28688;-63
2022/07/24 02:52:19;;;;;;;20.12;16.77;;;;;;;15.48;75.83;100568.39;2049475;85;31388;-63
2022/07/24 02:55:22;;;;;;;22.52;17.73;;;;;;;15.41;75.98;100558.95;2049053;86;33844;-63
2022/07/24 02:58:23;;;;;;;19.45;17.27;;;;;;;15.44;76.15;100572.25;2049135;86;30932;-63
2022/07/24 03:01:26;;;;;;;20.90;17.15;;;;;;;15.42;76.06;100571.48;2082979;84;28262;-63
2022/07/24 03:04:27;;;;;;;18.55;16.62;;;;;;;15.28;76.06;100552.16;2081795;85;29109;-63
2022/07/24 03:07:29;;;;;;;19.15;16.93;;;;;;;15.40;76.28;100578.81;2081880;85;32202;-63
2022/07/24 03:10:31;;;;;;;22.27;18.75;;;;;;;15.37;76.32;100583.94;2081790;85;33393;-63
2022/07/24 03:13:33;;;;;;;20.90;17.07;;;;;;;15.37;76.32;100583.94;2081702;85;30926;-63
2022/07/24 03:16:34;;;;;;;26.62;17.92;;;;;;;15.37;76.51;100581.73;2082319;85;27694;-63
2022/07/24 03:19:36;;;;;;;21.73;16.95;;;;;;;15.37;76.62;100580.39;2081686;85;30147;-63
2022/07/24 03:22:38;;;;;;;23.25;18.85;;;;;;;15.38;76.62;100583.47;2082095;85;31043;-62
2022/07/24 03:25:40;;;;;;;19.73;17.17;;;;;;;15.38;76.78;100585.67;2082107;85;32966;-62
2022/07/24 03:28:42;;;;;;;23.77;17.35;;;;;;;15.40;76.79;100590.95;2082214;85;30363;-63
2022/07/24 03:31:44;;;;;;;23.85;18.70;;;;;;;15.42;76.91;100599.83;2082055;85;27715;-62
2022/07/24 03:34:46;;;;;;;20.10;17.90;;;;;;;15.46;76.99;100602.25;2081697;85;29344;-62
2022/07/24 03:37:48;;;;;;;20.77;18.50;;;;;;;15.48;77.08;100601.64;2046318;87;32198;-62
2022/07/24 03:40:50;;;;;;;20.88;18.10;;;;;;;15.55;77.13;100605.30;2045830;86;33034;-62
2022/07/24 03:43:51;;;;;;;22.42;18.73;;;;;;;15.59;77.13;100608.19;2046398;86;29692;-62
2022/07/24 03:46:53;;;;;;;21.20;18.65;;;;;;;15.67;77.23;100613.09;2046251;86;28277;-62
2022/07/24 03:49:55;;;;;;;25.57;18.73;;;;;;;15.74;77.21;100611.69;2046334;87;28673;-62
2022/07/24 03:52:56;;;;;;;21.75;17.42;;;;;;;15.82;77.28;100616.12;2046238;87;32200;-62
2022/07/24 03:55:58;;;;;;;21.12;18.92;;;;;;;15.90;77.24;100616.98;2045831;86;34122;-63
2022/07/24 03:58:59;;;;;;;20.97;18.57;;;;;;;15.99;77.27;100619.05;2046144;87;30005;-62
2022/07/24 04:02:01;;;;;;;20.23;17.60;;;;;;;16.08;77.24;100629.27;2045801;86;27715;-63
2022/07/24 04:05:03;;;;;;;22.15;18.23;;;;;;;16.16;77.10;100615.69;2045777;87;29947;-63
2022/07/24 04:08:05;;;;;;;23.90;18.15;;;;;;;16.24;77.07;100622.81;2045798;87;32057;-63
2022/07/24 04:11:07;;;;;;;22.60;18.25;;;;;;;16.31;76.98;100621.40;2045960;87;33385;-63
2022/07/24 04:14:09;;;;;;;21.48;18.62;;;;;;;16.38;76.84;100620.02;2046213;87;30555;-63
2022/07/24 04:17:10;;;;;;;19.23;17.27;;;;;;;16.46;76.82;100618.64;2046383;85;27716;-62
2022/07/24 04:20:12;;;;;;;19.70;17.60;;;;;;;16.53;76.78;100613.16;2045905;87;28864;-63
2022/07/24 04:23:14;;;;;;;22.13;16.95;;;;;;;16.60;76.64;100614.95;2045928;87;31594;-63
2022/07/24 04:26:16;;;;;;;20.65;15.88;;;;;;;16.68;76.51;100618.00;2045706;85;33998;-64
2022/07/24 04:29:17;;;;;;;17.32;15.38;;;;;;;16.75;76.49;100617.08;2046287;87;29995;-64
2022/07/24 04:32:19;;;;;;;19.77;16.52;;;;;;;16.83;76.30;100616.03;2046564;87;27626;-64
2022/07/24 04:35:20;;;;;;;19.70;15.15;;;;;;;16.89;76.27;100612.89;2046263;86;29318;-64
2022/07/24 04:38:21;;;;;;;18.05;14.35;;;;;;;16.98;76.11;100616.81;2046249;87;31380;-64
2022/07/24 04:41:23;;;;;;;17.15;15.35;;;;;;;17.06;76.06;100616.27;2046423;87;34137;-63
2022/07/24 04:44:24;;;;;;;21.65;15.20;;;;;;;17.17;76.08;100617.70;2046285;87;30035;-64
2022/07/24 04:47:26;;;;;;;17.52;14.35;;;;;;;17.32;75.78;100627.91;2046490;86;27629;-64
2022/07/24 04:50:28;;;;;;;15.75;13.98;;;;;;;17.78;76.55;100627.72;2046472;87;29259;-64
2022/07/24 04:53:31;;;;;;;17.25;12.90;;;;;;;18.24;76.50;100625.23;2045993;87;32435;-63
2022/07/24 04:56:33;;;;;;;18.52;12.20;;;;;;;19.20;76.54;100631.33;2046355;87;33343;-63
2022/07/24 04:59:34;;;;;;;12.90;11.60;;;;;;;20.33;76.16;100626.95;2046026;86;29666;-64
2022/07/24 05:02:37;;;;;;;11.88;10.48;;;;;;;21.51;74.83;100635.75;2048718;85;27853;-65
2022/07/24 05:05:38;;;;;;;12.50;10.35;;;;;;;22.64;73.23;100646.34;2049268;86;28901;-64
2022/07/24 05:08:40;;;;;;;21.25;10.72;;;;;;;23.68;71.43;100643.14;2049617;86;31808;-63
2022/07/24 05:11:41;;;;;;;10.78;9.30;;;;;;;24.64;69.57;100647.16;2049566;85;32740;-63
2022/07/24 05:14:42;;;;;;;10.78;8.98;;;;;;;25.51;67.51;100650.42;2070761;86;30784;-65
2022/07/24 05:17:44;;;;;;;11.18;8.60;;;;;;;26.29;65.93;100655.25;2070867;85;28138;-65
2022/07/24 05:20:45;;;;;;;11.08;8.08;;;;;;;26.92;64.46;100658.33;2070734;85;29847;-63
2022/07/24 05:23:46;;;;;;;11.08;7.87;;;;;;;27.42;62.80;100654.91;2043959;86;32246;-63
2022/07/24 05:26:47;;;;;;;11.88;7.78;;;;;;;27.79;60.99;100653.05;2085498;85;33304;-64
2022/07/24 05:29:48;;;;;;;8.58;7.35;;;;;;;28.16;59.84;100663.84;2030624;87;28901;-63
2022/07/24 05:32:50;;;;;;;7.78;7.08;;;;;;;28.35;58.44;100668.86;2085521;85;27735;-64
2022/07/24 05:35:52;;;;;;;9.70;7.10;;;;;;;28.61;57.68;100674.52;2085440;84;28992;-64
2022/07/24 05:38:54;;;;;;;7.58;6.12;;;;;;;28.73;56.45;100672.69;2030875;87;31093;-64
2022/07/24 05:41:55;;;;;;;7.17;6.10;;;;;;;28.84;55.89;100670.03;2085312;85;33090;-65
2022/07/24 05:44:56;;;;;;;8.13;7.10;;;;;;;28.84;54.44;100672.25;2030528;87;30233;-64
2022/07/24 05:47:57;;;;;;;8.33;7.55;;;;;;;28.83;53.88;100677.97;2085461;85;27630;-64
2022/07/24 05:50:59;;;;;;;7.37;6.62;;;;;;;28.75;53.22;100681.13;2049420;86;29529;-64
2022/07/24 05:54:02;;;;;;;7.37;6.37;;;;;;;28.69;52.62;100679.10;2048865;86;32386;-64
2022/07/24 05:57:05;;;;;;;7.75;6.95;;;;;;;28.69;52.14;100674.97;2030677;87;33890;-65
2022/07/24 06:00:09;;;;;;;7.55;6.60;;;;;;;28.74;51.55;100676.65;2084907;85;30323;-65
2022/07/24 06:03:11;;;;;;;7.75;6.90;;;;;;;28.80;51.20;100676.42;2082243;85;27758;-66
2022/07/24 06:06:12;;;;;;;8.63;6.53;;;;;;;28.92;50.81;100676.83;2060588;86;28711;-65
2022/07/24 06:09:14;;;;;;;7.10;5.78;;;;;;;29.15;50.39;100677.28;2060458;86;32339;-64
2022/07/24 06:12:16;;;;;;;6.33;5.75;;;;;;;29.43;49.62;100677.51;2060564;86;33403;-65
2022/07/24 06:15:17;;;;;;;9.60;5.92;;;;;;;29.73;48.57;100684.36;2060857;86;30756;-65
2022/07/24 06:18:19;;;;;;;5.95;5.35;;;;;;;30.01;48.07;100687.80;2061014;86;27644;-65
2022/07/24 06:21:20;;;;;;;10.68;6.47;;;;;;;30.33;47.06;100688.88;2061031;86;29818;-65
2022/07/24 06:24:21;;;;;;;6.20;5.60;;;;;;;30.72;46.59;100691.69;2029557;86;31597;-65
2022/07/24 06:27:22;;;;;;;10.05;5.20;;;;;;;31.14;45.34;100693.20;2082285;85;33106;-65
2022/07/24 06:30:26;;;;;;;7.50;6.00;;;;;;;31.39;44.87;100692.19;2082245;85;29596;-66
2022/07/24 06:33:27;;;;;;;7.55;5.70;;;;;;;31.70;44.42;100689.99;2082238;85;27603;-66
2022/07/24 06:36:29;;;;;;;6.17;5.58;;;;;;;32.02;43.70;100686.19;2026919;87;29728;-65
2022/07/24 06:39:30;;;;;;;8.10;4.83;;;;;;;32.39;42.74;100688.95;2081945;85;31874;-66
2022/07/24 06:42:31;;;;;;;6.20;4.60;;;;;;;32.71;42.56;100682.79;2081991;85;32942;-65
2022/07/24 06:45:33;;;;;;;9.58;4.15;;;;;;;33.01;41.56;100680.97;2027178;87;29606;-65
2022/07/24 06:48:34;;;;;;;4.35;3.90;;;;;;;33.26;40.21;100681.13;2082229;85;27707;-66
2022/07/24 06:51:35;;;;;;;4.85;4.35;;;;;;;33.34;40.05;100678.10;2082009;85;28640;-65
2022/07/24 06:54:37;;;;;;;4.70;3.60;;;;;;;33.53;39.65;100675.51;2081912;85;31043;-66
2022/07/24 06:57:38;;;;;;;5.83;4.53;;;;;;;33.82;38.91;100689.07;2082142;85;33067;-66
2022/07/24 07:00:40;;;;;;;4.15;3.52;;;;;;;33.89;38.13;100683.83;2082142;85;30061;-66
2022/07/24 07:03:42;;;;;;;5.65;4.37;;;;;;;33.84;37.89;100685.54;2027104;87;27630;-66
2022/07/24 07:06:43;;;;;;;4.72;3.50;;;;;;;33.98;37.48;100688.59;2082199;85;28877;-65
2022/07/24 07:09:45;;;;;;;4.97;3.65;;;;;;;34.03;36.99;100680.97;2027211;87;31401;-65
2022/07/24 07:12:46;;;;;;;2.87;2.52;;;;;;;34.16;36.43;100678.13;2082072;85;32701;-66
2022/07/24 07:15:47;;;;;;;6.05;2.70;;;;;;;34.40;36.17;100671.41;2027389;87;29622;-65
2022/07/24 07:18:52;;;;;;;2.62;2.42;;;;;;;34.49;35.47;100677.06;2082104;85;27644;-65
2022/07/24 07:21:53;;;;;;;3.17;2.30;;;;;;;34.64;34.97;100675.87;2027366;87;28413;-65
2022/07/24 07:24:55;;;;;;;3.47;2.20;;;;;;;34.73;34.58;100684.23;2081666;85;30959;-66
2022/07/24 07:27:56;;;;;;;5.83;1.90;;;;;;;34.69;33.82;100685.23;2082043;85;33100;-65
2022/07/24 07:30:57;;;;;;;3.00;1.80;;;;;;;34.49;32.99;100681.23;2061016;86;29649;-65
2022/07/24 07:33:58;;;;;;;3.33;2.17;;;;;;;34.44;32.97;100685.22;2060604;86;27768;-66
2022/07/24 07:36:59;;;;;;;4.42;1.60;;;;;;;34.48;33.21;100678.14;2060872;86;28651;-65
2022/07/24 07:40:01;;;;;;;2.85;1.50;;;;;;;34.60;32.65;100676.84;2060829;86;32126;-65
2022/07/24 07:43:03;;;;;;;2.20;1.65;;;;;;;34.64;32.25;100673.92;2060581;86;33024;-65
2022/07/24 07:46:05;;;;;;;3.87;1.70;;;;;;;34.65;31.78;100684.53;2060774;86;29651;-65
2022/07/24 07:49:07;;;;;;;4.40;3.60;;;;;;;34.59;31.19;100689.60;2060860;86;27768;-65
2022/07/24 07:52:09;;;;;;;3.80;2.77;;;;;;;34.46;30.61;100690.03;2052301;86;29055;-66
2022/07/24 07:55:11;;;;;;;3.37;1.77;;;;;;;34.42;30.45;100687.93;2081885;85;31457;-65
2022/07/24 07:58:12;;;;;;;5.53;2.87;;;;;;;34.43;30.57;100693.25;2081762;85;34175;-65
2022/07/24 08:01:14;;;;;;;1.75;1.47;;;;;;;34.32;29.66;100692.02;2082073;85;30014;-65
2022/07/24 08:04:15;;;;;;;1.50;1.40;;;;;;;34.14;30.15;100686.36;2081894;84;27631;-65
2022/07/24 08:07:16;;;;;;;1.70;1.45;;;;;;;34.14;29.89;100690.00;2082443;85;28686;-65
2022/07/24 08:10:18;;;;;;;3.92;1.80;;;;;;;34.10;29.83;100697.08;2027550;87;32133;-66
2022/07/24 08:13:19;;;;;;;2.20;1.52;;;;;;;34.03;29.73;100694.86;2082543;85;32226;-65
2022/07/24 08:16:21;;;;;;;2.47;1.37;;;;;;;34.08;29.66;100688.11;2082251;85;30810;-65
2022/07/24 08:19:22;;;;;;;3.55;2.67;;;;;;;34.15;29.30;100692.23;2027592;87;27758;-66
2022/07/24 08:22:25;;;;;;;1.87;1.67;;;;;;;34.09;29.29;100690.66;2082005;85;43094;-66
2022/07/24 08:25:27;;;;;;;3.62;1.80;;;;;;;34.01;28.96;100695.10;2061054;86;31076;-65
2022/07/24 08:28:28;;;;;;;2.08;1.60;;;;;;;33.98;28.76;100687.75;2061283;86;33618;-65
2022/07/24 08:31:29;;;;;;;2.05;1.82;;;;;;;33.86;29.28;100682.00;2061282;86;30035;-65
2022/07/24 08:34:30;;;;;;;2.33;1.87;;;;;;;33.83;28.88;100683.83;2061372;86;27796;-65
2022/07/24 08:37:40;;;;;;;3.72;1.70;;;;;;;33.61;29.08;100685.00;2061195;86;29484;-65
2022/07/24 08:40:41;;;;;;;3.92;2.20;;;;;;;33.64;28.83;100689.25;2082239;85;31480;-65
2022/07/24 08:43:43;;;;;;;3.47;1.80;;;;;;;33.66;29.05;100687.66;2060846;86;34217;-65
2022/07/24 08:46:44;;;;;;;2.83;1.82;;;;;;;33.65;28.76;100686.80;2082529;85;30630;-65
2022/07/24 08:49:47;;;;;;;5.58;2.52;;;;;;;33.70;28.80;100679.18;2061415;86;27611;-65
2022/07/24 08:52:49;;;;;;;4.60;2.40;;;;;;;33.65;28.57;100677.63;2041964;86;29048;-65
2022/07/24 08:55:50;;;;;;;3.45;1.80;;;;;;;33.45;28.54;100678.00;2081648;85;31212;-65
2022/07/24 08:58:51;;;;;;;2.55;1.67;;;;;;;33.44;28.93;100676.29;2082254;85;34124;-66
2022/07/24 09:01:54;;;;;;;2.10;1.90;;;;;;;33.48;29.04;100673.95;2027372;87;30007;-65
2022/07/24 09:05:00;;;;;;;2.87;1.92;;;;;;;33.48;28.43;100679.50;2082120;85;27574;-65
2022/07/24 09:08:16;;;;;;;1.82;1.72;;;;;;;33.36;28.21;100686.78;2082207;85;29493;-66
2022/07/24 09:11:19;;;;;;;1.67;1.55;;;;;;;33.13;28.24;100683.95;2027445;87;32240;-64
2022/07/24 09:14:32;;;;;;;2.12;1.60;;;;;;;32.80;28.26;100684.27;2082679;85;33371;-65
2022/07/24 09:17:33;;;;;;;6.97;2.25;;;;;;;32.58;28.31;100684.50;2027588;87;30067;-65
2022/07/24 09:20:38;;;;;;;1.62;1.52;;;;;;;32.37;28.53;100698.01;2082447;85;27729;-65
2022/07/24 09:23:41;;;;;;;1.60;1.50;;;;;;;32.21;28.44;100691.45;2027478;87;29892;-65
2022/07/24 09:26:48;;;;;;;4.30;2.08;;;;;;;32.16;28.56;100693.47;2082267;85;31827;-65
2022/07/24 09:29:49;;;;;;;2.85;1.70;;;;;;;31.96;28.32;100694.81;2082459;85;34223;-65
2022/07/24 09:33:02;;;;;;;2.80;1.70;;;;;;;31.71;28.32;100692.58;2061305;86;30767;-66
2022/07/24 09:36:11;;;;;;;1.55;1.45;;;;;;;31.56;28.74;100687.17;2056479;86;27546;-65
2022/07/24 09:39:19;;;;;;;3.17;1.47;;;;;;;31.32;28.50;100685.23;2082594;85;29781;-65
2022/07/24 09:42:32;;;;;;;3.42;2.22;;;;;;;31.13;28.73;100690.98;2061147;86;31869;-64
2022/07/24 09:45:54;;;;;;;1.98;1.60;;;;;;;30.95;28.69;100686.45;2082249;85;33029;-65
2022/07/24 09:48:59;;;;;;;1.47;1.30;;;;;;;30.68;28.80;100687.09;2068299;85;29636;-65
2022/07/24 09:52:10;;;;;;;4.33;1.87;;;;;;;30.45;29.64;100687.29;2046426;86;27748;-65
2022/07/24 09:55:23;;;;;;;1.40;1.30;;;;;;;30.41;29.49;100692.37;2082206;85;29453;-65
2022/07/24 09:58:26;;;;;;;5.30;1.52;;;;;;;30.27;29.48;100692.75;2055214;86;31499;-65
2022/07/24 10:01:28;;;;;;;2.60;1.20;;;;;;;30.01;29.40;100694.70;2100734;84;33791;-65
2022/07/24 10:04:31;;;;;;;3.52;1.12;;;;;;;29.77;29.65;100691.73;2106599;83;29633;-69
2022/07/24 10:07:33;;;;;;;1.47;1.25;;;;;;;29.48;29.50;100692.11;2084206;84;28141;-69
2022/07/24 10:10:35;;;;;;;1.45;1.30;;;;;;;29.21;29.56;100688.41;2083860;85;28612;-64
2022/07/24 10:13:37;;;;;;;1.77;1.30;;;;;;;29.05;30.32;100689.44;2085116;84;31790;-66
2022/07/24 10:16:43;;;;;;;2.12;1.20;;;;;;;28.91;30.22;100688.39;2030687;86;33752;-68
2022/07/24 10:19:48;;;;;;;2.35;1.40;;;;;;;28.75;30.30;100686.64;2084669;85;29804;-66
2022/07/24 10:23:05;;;;;;;1.27;1.17;;;;;;;28.57;30.47;100685.58;2049223;86;27670;-66
2022/07/24 10:26:08;;;;;;;2.27;1.30;;;;;;;28.37;30.41;100682.48;2085588;84;28777;-66
2022/07/24 10:29:18;;;;;;;3.65;1.37;;;;;;;28.22;31.05;100679.64;2085458;85;31037;-65
2022/07/24 10:32:22;;;;;;;3.05;1.12;;;;;;;28.14;31.18;100686.07;2085207;85;34047;-66
2022/07/24 10:35:27;;;;;;;1.02;1.02;;;;;;;28.07;31.12;100682.82;2049229;86;31777;-66
2022/07/24 10:38:36;;;;;;;1.17;1.07;;;;;;;27.90;31.00;100679.63;2085737;84;27671;-66
2022/07/24 10:41:38;;;;;;;1.45;1.20;;;;;;;27.79;31.16;100677.30;2049143;86;30003;-67
2022/07/24 10:44:39;;;;;;;2.67;1.10;;;;;;;27.76;31.35;100677.66;2085452;85;31404;-65
2022/07/24 10:47:41;;;;;;;3.33;1.50;;;;;;;27.68;31.30;100668.92;2030452;86;34261;-66
2022/07/24 10:51:11;;;;;;;1.20;0.98;;;;;;;27.64;31.41;100673.59;2089015;83;30747;-66
2022/07/24 10:54:19;;;;;;;2.25;1.45;;;;;;;27.54;31.61;100672.44;2063129;85;27764;-66
2022/07/24 10:57:42;;;;;;;4.85;1.05;;;;;;;27.47;32.02;100672.83;2028782;87;29473;-65
2022/07/24 11:00:50;;;;;;;2.58;1.10;;;;;;;27.44;31.76;100663.86;2028820;87;31049;-65
2022/07/24 11:03:51;;;;;;;1.02;0.98;;;;;;;27.40;32.01;100667.98;2028594;87;33765;-65
2022/07/24 11:07:10;;;;;;;2.35;0.90;;;;;;;27.33;31.88;100668.88;2030312;87;30088;-66
2022/07/24 11:10:13;;;;;;;1.27;1.00;;;;;;;27.29;31.82;100667.85;2085484;85;27683;-65
2022/07/24 11:13:41;;;;;;;1.32;1.20;;;;;;;27.22;31.78;100659.11;2085095;85;29528;-66
2022/07/24 11:16:45;;;;;;;4.78;1.02;;;;;;;27.20;32.04;100655.67;2030388;86;32269;-67
2022/07/24 11:19:48;;;;;;;2.47;0.88;;;;;;;27.18;31.10;100654.49;2084901;85;34352;-66
2022/07/24 11:22:53;;;;;;;1.15;0.93;;;;;;;27.08;31.90;100651.06;2030624;86;29639;-66
2022/07/24 11:26:40;;;;;;;3.45;1.00;;;;;;;27.11;31.82;100657.09;2085321;85;27665;-67
2022/07/24 11:29:39;;;;;;;1.25;1.00;;;;;;;27.12;31.78;100652.44;2040235;86;29718;-67
2022/07/24 11:32:41;;;;;;;1.00;0.95;;;;;;;27.07;31.45;100641.09;2070398;86;31002;-66
2022/07/24 11:35:43;;;;;;;2.42;0.98;;;;;;;27.00;31.87;100646.45;2057491;84;33156;-65
2022/07/24 11:38:44;;;;;;;1.20;0.98;;;;;;;27.01;32.01;100641.82;2085365;85;29642;-66
2022/07/24 11:41:49;;;;;;;0.93;0.90;;;;;;;26.96;31.69;100639.08;2085463;85;27711;-68
2022/07/24 11:44:50;;;;;;;2.25;0.82;;;;;;;26.94;31.87;100638.39;2030660;87;29471;-67
2022/07/24 11:47:54;;;;;;;1.25;0.90;;;;;;;26.93;31.70;100642.17;2084705;85;31004;-71
2022/07/24 11:51:05;;;;;;;1.57;0.83;;;;;;;26.93;31.58;100643.55;2071481;85;33698;-68
2022/07/24 11:54:06;;;;;;;0.90;0.70;;;;;;;26.92;31.15;100636.33;2061318;86;29663;-65
2022/07/24 11:57:22;;;;;;;0.70;0.70;;;;;;;26.84;31.02;100637.73;2085309;85;27630;-65
2022/07/24 12:00:27;;;;;;;1.98;1.10;;;;;;;26.78;31.20;100637.89;2069858;84;28965;-65
2022/07/24 12:03:28;;;;;;;2.72;1.10;;;;;;;26.68;31.29;100634.45;2062548;85;31856;-65
2022/07/24 12:06:29;;;;;;;1.00;0.90;;;;;;;26.60;31.49;100643.56;2081934;85;33836;-63
2022/07/24 12:09:31;;;;;;;1.22;1.12;;;;;;;26.54;31.63;100636.87;2026786;87;29758;-66
2022/07/24 12:12:37;;;;;;;1.30;1.10;;;;;;;26.51;31.80;100633.63;2059670;86;27644;-66
2022/07/24 12:15:39;;;;;;;0.90;0.90;;;;;;;26.47;31.61;100633.63;2059403;86;30038;-65
2022/07/24 12:18:40;;;;;;;2.37;1.00;;;;;;;26.45;31.93;100625.56;2058942;86;31893;-67
2022/07/24 12:21:43;;;;;;;1.50;0.95;;;;;;;26.47;31.42;100627.63;2059173;86;33006;-67
2022/07/24 12:24:44;;;;;;;2.35;1.30;;;;;;;26.49;31.51;100628.28;2036173;86;30022;-62
2022/07/24 12:27:52;;;;;;;4.33;1.10;;;;;;;26.44;30.67;100627.97;2059594;86;27701;-71
2022/07/24 12:30:54;;;;;;;2.62;1.15;;;;;;;26.36;30.29;100616.47;2053662;86;30075;-70
2022/07/24 12:33:56;;;;;;;1.40;1.02;;;;;;;26.31;30.47;100615.28;2053705;86;31898;-64
2022/07/24 12:36:58;;;;;;;1.80;0.80;;;;;;;26.31;30.62;100615.28;2053511;86;33938;-64
2022/07/24 12:39:59;;;;;;;0.82;0.80;;;;;;;26.29;30.52;100614.05;2053828;86;29694;-65
2022/07/24 12:43:06;;;;;;;1.12;0.85;;;;;;;26.26;30.50;100612.17;2055051;86;27661;-69
2022/07/24 12:46:10;;;;;;;1.75;1.15;;;;;;;26.23;30.40;100611.48;2053701;86;28687;-68
2022/07/24 12:49:14;;;;;;;1.70;1.37;;;;;;;26.22;30.58;100608.39;2053626;86;32262;-66
2022/07/24 12:52:25;;;;;;;3.27;1.10;;;;;;;26.23;30.46;100609.23;2053925;86;32976;-64
2022/07/24 12:55:26;;;;;;;1.75;0.95;;;;;;;26.26;30.95;100610.27;2053570;86;29672;-59
2022/07/24 12:58:28;;;;;;;1.02;1.02;;;;;;;26.31;30.83;100609.25;2054112;86;27914;-60
2022/07/24 13:01:49;;;;;;;2.45;1.40;;;;;;;26.33;30.76;100607.20;2053483;86;30070;-60
2022/07/24 13:04:54;;;;;;;3.50;1.20;;;;;;;26.34;30.58;100603.92;2053262;86;32341;-63
2022/07/24 13:07:55;;;;;;;;;;;;;;;26.36;30.46;100594.50;2056300;86;33126;-59
2022/07/24 13:10:56;;;;;;;1.72;1.00;;;;;;;26.35;30.55;100595.52;2054210;86;27738;-59
2022/07/24 13:13:58;;;;;;;1.50;1.00;;;;;;;26.34;30.49;100592.93;2054225;86;27676;-61
2022/07/24 13:17:10;;;;;;;3.55;1.00;;;;;;;26.35;30.23;100598.27;2054255;86;28848;-60
2022/07/24 13:20:11;;;;;;;1.92;1.00;;;;;;;26.31;29.90;100593.30;2054106;86;31029;-61
2022/07/24 13:23:13;;;;;;;1.30;1.00;;;;;;;26.29;30.30;100589.87;2054101;86;33351;-61
2022/07/24 13:26:14;;;;;;;2.15;0.90;;;;;;;26.31;30.61;100582.31;2054131;86;30032;-62
2022/07/24 13:29:15;;;;;;;1.07;0.93;;;;;;;26.34;30.43;100582.82;2054164;86;27657;-61
2022/07/24 13:32:17;;;;;;;1.82;0.80;;;;;;;26.37;30.36;100578.86;2053772;86;29543;-61
2022/07/24 13:35:18;;;;;;;1.40;0.90;;;;;;;26.38;30.33;100570.95;2054128;86;31074;-61
2022/07/24 13:38:19;;;;;;;0.93;0.85;;;;;;;26.39;30.36;100573.52;2053946;86;33023;-60
2022/07/24 13:41:21;;;;;;;2.47;1.10;;;;;;;26.39;30.18;100577.64;2054287;86;30026;-61
2022/07/24 13:44:22;;;;;;;1.70;0.98;;;;;;;26.43;30.47;100573.17;2059725;86;27723;-63
2022/07/24 13:47:23;;;;;;;0.88;0.80;;;;;;;26.43;29.84;100571.30;2060766;86;28675;-62
2022/07/24 13:50:24;;;;;;;0.78;0.72;;;;;;;26.44;29.66;100570.28;2035797;86;31867;-62
2022/07/24 13:53:26;;;;;;;1.02;0.88;;;;;;;26.41;29.38;100563.75;2060464;86;34074;-64
2022/07/24 13:56:27;;;;;;;2.30;0.85;;;;;;;26.42;29.75;100563.22;2082118;85;29387;-64
2022/07/24 13:59:28;;;;;;;0.80;0.80;;;;;;;26.45;29.91;100560.13;2081893;85;27656;-62
2022/07/24 14:02:29;;;;;;;1.67;1.10;;;;;;;26.49;29.74;100566.47;2082184;85;28646;-62
2022/07/24 14:05:31;;;;;;;3.17;0.80;;;;;;;26.52;29.63;100558.41;2029618;87;31965;-66